Time;durP1;ratioP1;P1;durP2;ratioP2;P2;SDS_P1;SDS_P2;PMS_P1;PMS_P2;Temp;Humidity;BMP_temperature;BMP_pressure;BME280_temperature;BME280_humidity;BME280_pressure;Samples;Min_cycle;Max_cycle;Signal;HPM_P1;HPM_P2
2022/03/08 00:00:28;;;;;;;10.18;4.45;;;1.10;99.90;;;;;;4822048;29;20055;-87
2022/03/08 00:02:57;;;;;;;10.60;5.22;;;1.10;99.90;;;;;;4814934;29;20149;-87
2022/03/08 00:05:23;;;;;;;9.38;5.28;;;1.40;99.90;;;;;;4820806;29;20505;-86
2022/03/08 00:07:50;;;;;;;8.95;5.13;;;1.00;99.90;;;;;;4821863;29;20047;-87
2022/03/08 00:10:16;;;;;;;12.02;4.97;;;1.10;99.90;;;;;;4811079;29;20062;-86
2022/03/08 00:12:43;;;;;;;5.55;4.00;;;1.10;99.90;;;;;;4820543;29;20054;-86
2022/03/08 00:15:12;;;;;;;9.35;4.53;;;1.10;99.90;;;;;;4813094;29;20057;-87
2022/03/08 00:17:38;;;;;;;8.88;4.60;;;1.10;99.90;;;;;;4818671;29;20086;-87
2022/03/08 00:20:06;;;;;;;8.90;4.90;;;1.30;99.90;;;;;;4825091;29;20054;-87
2022/03/08 00:22:33;;;;;;;8.57;5.15;;;1.00;99.90;;;;;;4807059;29;20093;-87
2022/03/08 00:25:01;;;;;;;9.23;4.90;;;1.50;99.90;;;;;;4815875;29;20132;-87
2022/03/08 00:27:28;;;;;;;9.32;4.85;;;2.00;99.90;;;;;;4810950;29;20065;-86
2022/03/08 00:29:54;;;;;;;9.88;5.30;;;1.60;99.90;;;;;;4817700;29;20110;-86
2022/03/08 00:32:20;;;;;;;10.88;5.35;;;1.20;99.90;;;;;;4814760;29;20056;-87
2022/03/08 00:34:45;;;;;;;9.85;5.00;;;1.20;99.90;;;;;;4797136;29;20123;-87
2022/03/08 00:37:11;;;;;;;8.95;5.05;;;1.30;99.90;;;;;;4791395;29;20058;-87
2022/03/08 00:39:37;;;;;;;9.60;5.38;;;2.20;99.90;;;;;;4818600;29;20062;-86
2022/03/08 00:42:03;;;;;;;8.73;5.90;;;2.40;99.90;;;;;;4824256;29;20106;-87
2022/03/08 00:44:29;;;;;;;8.55;4.88;;;1.30;99.90;;;;;;4809018;29;20050;-86
2022/03/08 00:46:55;;;;;;;10.00;5.20;;;1.70;99.90;;;;;;4821015;29;20469;-87
2022/03/08 00:49:21;;;;;;;8.35;4.75;;;1.10;99.90;;;;;;4813831;29;20050;-86
2022/03/08 00:51:46;;;;;;;9.00;5.30;;;1.00;99.90;;;;;;4824084;29;20062;-86
2022/03/08 00:54:13;;;;;;;11.27;5.63;;;1.50;99.90;;;;;;4821292;29;20126;-86
2022/03/08 00:56:38;;;;;;;8.07;4.95;;;0.90;99.90;;;;;;4811488;29;20145;-86
2022/03/08 00:59:04;;;;;;;16.17;11.55;;;0.90;99.90;;;;;;4827175;29;20145;-86
2022/03/08 01:01:30;;;;;;;10.32;5.53;;;1.50;99.90;;;;;;4805614;29;20061;-87
2022/03/08 01:03:56;;;;;;;9.48;5.22;;;0.80;99.90;;;;;;4836055;29;20111;-86
2022/03/08 01:06:22;;;;;;;8.60;5.53;;;0.70;99.90;;;;;;4820629;29;20047;-87
2022/03/08 01:08:47;;;;;;;9.30;5.00;;;0.70;99.90;;;;;;4835919;29;20130;-86
2022/03/08 01:11:13;;;;;;;7.50;4.40;;;0.70;99.90;;;;;;4819671;29;20076;-86
2022/03/08 01:13:39;;;;;;;8.57;4.35;;;0.60;99.90;;;;;;4836328;29;20161;-87
2022/03/08 01:16:05;;;;;;;10.63;5.13;;;0.80;99.90;;;;;;4820309;29;20058;-87
2022/03/08 01:18:31;;;;;;;9.23;4.60;;;1.00;99.90;;;;;;4796569;29;20050;-87
2022/03/08 01:20:58;;;;;;;9.50;4.90;;;0.60;99.90;;;;;;4823322;29;20492;-86
2022/03/08 01:23:23;;;;;;;9.30;5.30;;;0.60;99.90;;;;;;4821486;29;20141;-86
2022/03/08 01:25:49;;;;;;;10.23;4.93;;;0.70;99.90;;;;;;4819831;29;20074;-87
2022/03/08 01:28:15;;;;;;;10.25;5.50;;;1.40;99.90;;;;;;4808264;29;20079;-86
2022/03/08 01:30:41;;;;;;;10.45;5.28;;;0.70;99.90;;;;;;4805621;29;20054;-86
2022/03/08 01:33:06;;;;;;;10.25;5.22;;;1.40;99.90;;;;;;4819668;29;20058;-86
2022/03/08 01:35:32;;;;;;;8.52;5.28;;;0.60;99.90;;;;;;4835884;29;20059;-87
2022/03/08 01:37:58;;;;;;;11.10;5.75;;;0.50;99.90;;;;;;4814867;29;20090;-87
2022/03/08 01:40:24;;;;;;;10.85;5.85;;;1.20;99.90;;;;;;4805386;29;20093;-87
2022/03/08 01:42:50;;;;;;;10.10;5.70;;;0.40;99.90;;;;;;4819890;29;20390;-87
2022/03/08 01:45:22;;;;;;;11.15;5.20;;;0.40;99.90;;;;;;4805184;29;20062;-87
2022/03/08 01:47:48;;;;;;;7.78;4.63;;;0.80;99.90;;;;;;4809089;29;20050;-87
2022/03/08 01:50:15;;;;;;;10.15;5.22;;;0.20;99.90;;;;;;4805774;29;20055;-86
2022/03/08 01:52:41;;;;;;;10.00;5.20;;;0.10;99.90;;;;;;4820116;29;20527;-87
2022/03/08 01:55:08;;;;;;;9.00;5.10;;;0.70;99.90;;;;;;4834864;29;20058;-87
2022/03/08 01:57:34;;;;;;;9.85;5.38;;;0.00;99.90;;;;;;4808227;29;20162;-87
2022/03/08 02:00:00;;;;;;;11.00;5.47;;;0.00;99.90;;;;;;4815153;29;20093;-87
2022/03/08 02:02:26;;;;;;;12.70;6.10;;;0.80;99.90;;;;;;4804822;29;20114;-87
2022/03/08 02:04:52;;;;;;;11.20;5.85;;;0.00;99.90;;;;;;4811958;29;20058;-87
2022/03/08 02:07:18;;;;;;;9.40;4.80;;;0.10;99.90;;;;;;4842946;29;20056;-87
2022/03/08 02:09:44;;;;;;;10.15;5.63;;;0.60;99.90;;;;;;4798656;29;20127;-87
2022/03/08 02:12:11;;;;;;;14.25;6.18;;;0.20;99.90;;;;;;4820145;29;20050;-87
2022/03/08 02:14:37;;;;;;;11.88;5.30;;;0.20;99.90;;;;;;4820103;29;20545;-87
2022/03/08 02:17:03;;;;;;;9.23;5.70;;;1.00;99.90;;;;;;4822663;29;20054;-87
2022/03/08 02:19:29;;;;;;;9.38;5.55;;;0.20;99.90;;;;;;4822697;29;20050;-87
2022/03/08 02:21:55;;;;;;;9.55;5.38;;;0.10;99.90;;;;;;4834819;29;20062;-87
2022/03/08 02:24:22;;;;;;;10.52;5.82;;;0.70;99.90;;;;;;4790692;29;20137;-87
2022/03/08 02:26:49;;;;;;;11.27;6.30;;;0.10;99.90;;;;;;4809465;29;20054;-87
2022/03/08 02:29:15;;;;;;;11.38;5.88;;;0.10;99.90;;;;;;4804377;29;20122;-87
2022/03/08 02:31:41;;;;;;;10.50;5.93;;;0.10;99.90;;;;;;4799802;29;20488;-86
2022/03/08 02:34:07;;;;;;;9.95;5.80;;;0.20;99.90;;;;;;4807289;29;20114;-87
2022/03/08 02:36:32;;;;;;;10.77;5.50;;;0.10;99.90;;;;;;4822019;29;20046;-87
2022/03/08 02:38:58;;;;;;;11.13;6.75;;;0.60;99.90;;;;;;4819696;29;20054;-87
2022/03/08 02:41:24;;;;;;;22.05;16.40;;;0.40;99.90;;;;;;4795338;29;20089;-87
2022/03/08 02:43:50;;;;;;;13.52;9.82;;;0.10;99.90;;;;;;4804057;29;20062;-87
2022/03/08 02:46:17;;;;;;;11.73;7.32;;;0.30;99.90;;;;;;4822530;29;20153;-87
2022/03/08 02:48:42;;;;;;;13.80;7.60;;;1.10;99.90;;;;;;4814152;29;20038;-87
2022/03/08 02:51:08;;;;;;;11.65;6.43;;;0.80;99.90;;;;;;4807162;29;20049;-87
2022/03/08 02:53:34;;;;;;;9.02;6.25;;;0.40;99.90;;;;;;4795503;29;20071;-87
2022/03/08 02:55:59;;;;;;;11.15;6.30;;;-0.10;99.90;;;;;;4804945;29;20066;-87
2022/03/08 02:58:25;;;;;;;12.77;6.82;;;0.60;99.90;;;;;;4822341;29;20058;-87
2022/03/08 03:00:51;;;;;;;11.00;6.05;;;-0.10;99.90;;;;;;4822212;29;20137;-86
2022/03/08 03:03:17;;;;;;;13.00;6.68;;;0.60;99.90;;;;;;4822217;29;20499;-87
2022/03/08 03:05:42;;;;;;;9.88;5.72;;;0.20;99.90;;;;;;4820313;29;20050;-87
2022/03/08 03:08:09;;;;;;;10.15;6.18;;;-0.30;99.90;;;;;;4825598;29;20066;-87
2022/03/08 03:10:34;;;;;;;12.02;6.45;;;0.70;99.90;;;;;;4809020;29;20147;-87
2022/03/08 03:13:00;;;;;;;12.07;5.90;;;-0.40;99.90;;;;;;4819932;29;20120;-87
2022/03/08 03:15:28;;;;;;;11.15;5.82;;;0.40;99.90;;;;;;4799972;29;20062;-87
2022/03/08 03:17:55;;;;;;;12.15;6.28;;;0.30;99.90;;;;;;4818350;29;20050;-87
2022/03/08 03:20:22;;;;;;;12.13;6.55;;;0.10;99.90;;;;;;4832030;29;20524;-86
2022/03/08 03:22:49;;;;;;;12.15;6.57;;;-0.40;99.90;;;;;;4813563;29;20058;-87
2022/03/08 03:25:15;;;;;;;14.43;6.88;;;-0.40;99.90;;;;;;4806696;29;20090;-86
2022/03/08 03:27:44;;;;;;;11.32;6.28;;;0.40;99.90;;;;;;4814391;29;20062;-87
2022/03/08 03:30:12;;;;;;;11.80;6.38;;;0.40;99.90;;;;;;4818159;29;20047;-87
2022/03/08 03:32:38;;;;;;;11.32;6.68;;;-0.30;99.90;;;;;;4814140;29;20120;-87
2022/03/08 03:35:05;;;;;;;11.55;6.85;;;-0.30;99.90;;;;;;4833932;29;20043;-87
2022/03/08 03:37:31;;;;;;;11.82;6.38;;;-0.30;99.90;;;;;;4833862;29;20134;-86
2022/03/08 03:39:56;;;;;;;9.32;6.05;;;-0.30;99.90;;;;;;4834006;29;20154;-86
2022/03/08 03:42:22;;;;;;;15.80;7.43;;;-0.40;99.90;;;;;;4833838;29;20728;-86
2022/03/08 03:44:48;;;;;;;12.70;6.00;;;-0.40;99.90;;;;;;4818654;29;20090;-86
2022/03/08 03:47:14;;;;;;;12.15;6.57;;;-0.40;99.90;;;;;;4802973;29;20061;-87
2022/03/08 03:49:39;;;;;;;13.65;7.28;;;-0.40;99.90;;;;;;4803000;29;20058;-87
2022/03/08 03:52:05;;;;;;;13.15;6.25;;;-0.40;99.90;;;;;;4810890;29;20378;-87
2022/03/08 03:54:31;;;;;;;12.63;6.32;;;-0.40;99.90;;;;;;4818259;29;20046;-86
2022/03/08 03:56:58;;;;;;;12.35;6.22;;;0.30;99.90;;;;;;4818432;29;20411;-87
2022/03/08 03:59:23;;;;;;;13.00;6.75;;;0.00;99.90;;;;;;4815208;29;20047;-87
2022/03/08 04:01:49;;;;;;;11.27;6.00;;;-0.40;99.90;;;;;;4806473;29;20513;-86
2022/03/08 04:04:15;;;;;;;14.48;8.07;;;0.50;99.90;;;;;;4805417;29;20058;-87
2022/03/08 04:06:40;;;;;;;13.93;6.82;;;0.60;99.90;;;;;;4833686;29;20536;-87
2022/03/08 04:09:06;;;;;;;12.57;6.57;;;-0.30;99.90;;;;;;4806925;29;20176;-87
2022/03/08 04:11:32;;;;;;;13.25;6.80;;;-0.10;99.90;;;;;;4833548;29;20066;-86
2022/03/08 04:13:58;;;;;;;12.85;7.18;;;-0.30;99.90;;;;;;4802944;29;20062;-87
2022/03/08 04:16:25;;;;;;;17.35;8.75;;;-0.30;99.90;;;;;;4812031;29;20082;-87
2022/03/08 04:18:50;;;;;;;15.52;8.38;;;-0.30;99.90;;;;;;4811471;29;20058;-87
2022/03/08 04:21:16;;;;;;;14.85;7.15;;;-0.30;99.90;;;;;;4803496;29;20129;-87
2022/03/08 04:23:42;;;;;;;13.18;7.30;;;-0.30;99.90;;;;;;4817973;29;20061;-86
2022/03/08 04:26:08;;;;;;;23.02;16.80;;;0.20;99.90;;;;;;4802106;29;20104;-87
2022/03/08 04:28:34;;;;;;;18.63;9.27;;;-0.30;99.90;;;;;;4803497;29;20134;-86
2022/03/08 04:30:59;;;;;;;14.55;7.55;;;-0.30;99.90;;;;;;4813468;29;20145;-86
2022/03/08 04:33:25;;;;;;;14.52;8.00;;;-0.30;99.90;;;;;;4806286;29;20086;-86
2022/03/08 04:35:51;;;;;;;14.02;7.53;;;-0.30;99.90;;;;;;4821455;29;20077;-86
2022/03/08 04:38:17;;;;;;;15.75;8.05;;;-0.30;99.90;;;;;;4805608;29;20141;-87
2022/03/08 04:40:43;;;;;;;12.23;7.40;;;-0.30;99.90;;;;;;4820310;29;20066;-87
2022/03/08 04:43:08;;;;;;;12.98;7.97;;;-0.40;99.90;;;;;;4819156;29;20814;-87
2022/03/08 04:45:34;;;;;;;13.55;8.05;;;0.00;99.90;;;;;;4809521;29;20065;-87
2022/03/08 04:48:00;;;;;;;17.02;7.88;;;-0.40;99.90;;;;;;4823880;29;20038;-86
2022/03/08 04:50:26;;;;;;;14.00;8.40;;;-0.40;99.90;;;;;;4808791;29;20057;-87
2022/03/08 04:52:51;;;;;;;14.10;8.73;;;0.30;99.90;;;;;;4820416;29;20054;-87
2022/03/08 04:55:19;;;;;;;14.82;8.88;;;-0.40;99.90;;;;;;4806144;29;20050;-87
2022/03/08 04:57:47;;;;;;;18.35;8.23;;;-0.60;99.90;;;;;;4820432;29;20412;-86
2022/03/08 05:00:14;;;;;;;18.17;9.70;;;-0.60;99.90;;;;;;4819569;29;20404;-86
2022/03/08 05:02:41;;;;;;;17.00;8.43;;;-0.60;99.90;;;;;;4805841;29;20138;-86
2022/03/08 05:05:08;;;;;;;15.05;7.35;;;-0.60;99.90;;;;;;4805590;29;20082;-86
2022/03/08 05:07:35;;;;;;;15.50;7.88;;;-0.60;99.90;;;;;;4819663;29;20114;-87
2022/03/08 05:10:03;;;;;;;13.82;7.85;;;-0.20;99.90;;;;;;4797399;29;20074;-86
2022/03/08 05:12:28;;;;;;;18.00;9.38;;;-0.60;99.90;;;;;;4815955;29;20054;-87
2022/03/08 05:14:54;;;;;;;16.63;8.38;;;-0.60;99.90;;;;;;4816902;29;20054;-87
2022/03/08 05:17:20;;;;;;;14.85;8.52;;;-0.10;99.90;;;;;;4790554;29;20077;-86
2022/03/08 05:19:45;;;;;;;18.25;9.30;;;-0.60;99.90;;;;;;4835742;29;20089;-87
2022/03/08 05:22:11;;;;;;;15.77;9.27;;;-0.60;99.90;;;;;;4817551;29;20058;-86
2022/03/08 05:24:37;;;;;;;16.48;9.15;;;0.20;99.90;;;;;;4805134;29;20086;-87
2022/03/08 05:27:03;;;;;;;15.52;9.30;;;-0.70;99.90;;;;;;4811321;29;20046;-87
2022/03/08 05:29:28;;;;;;;15.98;9.18;;;-0.70;99.90;;;;;;4812504;29;20053;-86
2022/03/08 05:31:54;;;;;;;14.30;8.38;;;-0.70;99.90;;;;;;4820099;29;20446;-87
2022/03/08 05:34:20;;;;;;;15.23;8.52;;;-0.70;99.90;;;;;;4835692;29;20046;-87
2022/03/08 05:36:46;;;;;;;16.63;9.07;;;-0.40;99.90;;;;;;4813266;29;20062;-86
2022/03/08 05:39:12;;;;;;;14.00;8.52;;;0.10;99.90;;;;;;4822321;29;20080;-87
2022/03/08 05:41:37;;;;;;;17.15;9.02;;;-0.80;99.90;;;;;;4797602;29;20050;-86
2022/03/08 05:44:03;;;;;;;16.85;8.75;;;-0.80;99.90;;;;;;4835343;29;20042;-86
2022/03/08 05:46:29;;;;;;;19.77;9.45;;;-0.80;99.90;;;;;;4804897;29;20050;-87
2022/03/08 05:48:55;;;;;;;17.13;9.35;;;-0.80;99.90;;;;;;4819803;29;20047;-87
2022/03/08 05:51:20;;;;;;;18.92;8.45;;;-0.80;99.90;;;;;;4820318;29;20074;-87
2022/03/08 05:53:46;;;;;;;15.25;8.80;;;-0.90;99.90;;;;;;4804855;29;20059;-87
2022/03/08 05:56:12;;;;;;;15.20;8.52;;;-0.90;99.90;;;;;;4834575;29;20058;-86
2022/03/08 05:58:38;;;;;;;18.17;9.77;;;-0.40;99.90;;;;;;4826160;29;20070;-87
2022/03/08 06:01:03;;;;;;;17.98;10.15;;;-0.80;99.90;;;;;;4817074;29;20050;-85
2022/03/08 06:03:29;;;;;;;17.10;9.23;;;-0.80;99.90;;;;;;4797627;29;20059;-86
2022/03/08 06:05:55;;;;;;;17.85;9.98;;;-0.80;99.90;;;;;;4804782;29;20054;-87
2022/03/08 06:08:20;;;;;;;17.15;9.23;;;-0.80;99.90;;;;;;4833399;29;20113;-86
2022/03/08 06:10:46;;;;;;;21.55;15.10;;;-0.80;99.90;;;;;;4822637;29;20053;-87
2022/03/08 06:13:12;;;;;;;19.67;10.35;;;-0.80;99.90;;;;;;4809532;29;20092;-87
2022/03/08 06:15:37;;;;;;;19.48;11.20;;;-0.80;99.90;;;;;;4832615;29;20051;-86
2022/03/08 06:18:03;;;;;;;17.92;9.68;;;0.10;99.90;;;;;;4817615;29;20111;-87
2022/03/08 06:20:29;;;;;;;18.25;10.13;;;-0.80;99.90;;;;;;4812126;29;20063;-87
2022/03/08 06:22:55;;;;;;;18.60;10.13;;;-0.80;99.90;;;;;;4807436;29;20081;-87
2022/03/08 06:25:21;;;;;;;15.20;9.25;;;-0.80;99.90;;;;;;4819778;29;20065;-87
2022/03/08 06:27:46;;;;;;;16.83;9.95;;;0.30;99.90;;;;;;4816111;29;20051;-87
2022/03/08 06:30:12;;;;;;;17.73;9.93;;;-0.80;99.90;;;;;;4834716;29;20043;-86
2022/03/08 06:32:38;;;;;;;18.65;9.68;;;-0.70;99.90;;;;;;4815420;29;20473;-87
2022/03/08 06:35:04;;;;;;;17.30;9.43;;;-0.10;99.90;;;;;;4804424;29;20133;-87
2022/03/08 06:37:30;;;;;;;17.10;9.55;;;-0.70;99.90;;;;;;4819227;29;20535;-87
2022/03/08 06:39:56;;;;;;;16.92;10.10;;;-0.20;99.90;;;;;;4822322;29;20050;-87
2022/03/08 06:42:22;;;;;;;18.83;10.95;;;-0.60;99.90;;;;;;4819070;29;20062;-87
2022/03/08 06:44:47;;;;;;;19.58;9.98;;;-0.50;99.90;;;;;;4804083;29;20054;-87
2022/03/08 06:47:13;;;;;;;18.40;9.85;;;-0.50;99.90;;;;;;4804329;29;20089;-87
2022/03/08 06:49:41;;;;;;;17.08;9.50;;;0.30;99.90;;;;;;4819609;29;20050;-87
2022/03/08 06:52:09;;;;;;;19.13;9.43;;;-0.10;99.90;;;;;;4814240;29;20046;-87
2022/03/08 06:54:35;;;;;;;17.90;9.85;;;0.20;99.90;;;;;;4816044;29;20130;-87
2022/03/08 06:57:02;;;;;;;16.60;8.98;;;0.70;99.90;;;;;;4812059;29;20070;-86
2022/03/08 06:59:29;;;;;;;24.17;10.75;;;-0.20;99.90;;;;;;4814374;29;20097;-87
2022/03/08 07:01:56;;;;;;;20.55;9.98;;;0.90;99.90;;;;;;4816553;29;20082;-87
2022/03/08 07:04:22;;;;;;;16.63;8.98;;;-0.10;99.90;;;;;;4803856;29;20058;-87
2022/03/08 07:06:48;;;;;;;17.83;9.93;;;0.00;99.90;;;;;;4804744;29;20519;-87
2022/03/08 07:09:14;;;;;;;18.00;10.50;;;0.10;99.90;;;;;;4819039;29;20168;-87
2022/03/08 07:11:40;;;;;;;17.75;9.15;;;0.20;99.90;;;;;;4803862;29;20058;-84
2022/03/08 07:14:06;;;;;;;16.70;9.55;;;0.20;99.90;;;;;;4817743;29;20853;-86
2022/03/08 07:16:33;;;;;;;18.83;10.95;;;0.30;99.90;;;;;;4803617;29;20062;-86
2022/03/08 07:18:58;;;;;;;19.40;10.23;;;0.40;99.90;;;;;;4809126;29;20046;-86
2022/03/08 07:21:24;;;;;;;19.15;10.00;;;0.80;99.90;;;;;;4809035;29;20512;-85
2022/03/08 07:23:51;;;;;;;19.50;10.43;;;0.60;99.90;;;;;;4820235;29;20118;-86
2022/03/08 07:26:16;;;;;;;17.33;9.05;;;0.60;99.90;;;;;;4818061;29;20098;-86
2022/03/08 07:28:42;;;;;;;20.75;10.57;;;0.70;99.90;;;;;;4833528;29;20047;-86
2022/03/08 07:31:08;;;;;;;17.70;10.13;;;0.80;99.90;;;;;;4817469;29;20186;-85
2022/03/08 07:33:34;;;;;;;17.10;10.55;;;0.90;99.90;;;;;;4836799;29;20067;-84
2022/03/08 07:36:00;;;;;;;18.02;9.93;;;1.30;99.90;;;;;;4814773;29;20050;-85
2022/03/08 07:38:26;;;;;;;21.52;10.18;;;1.10;99.90;;;;;;4821184;29;20046;-84
2022/03/08 07:40:52;;;;;;;22.15;15.73;;;1.70;99.90;;;;;;4819167;29;20087;-84
2022/03/08 07:43:18;;;;;;;18.83;9.77;;;1.70;99.90;;;;;;4807583;29;20138;-84
2022/03/08 07:45:44;;;;;;;16.52;9.55;;;1.40;99.90;;;;;;4834033;29;20061;-84
2022/03/08 07:48:10;;;;;;;16.33;9.43;;;1.90;99.90;;;;;;4804616;29;20059;-83
2022/03/08 07:50:36;;;;;;;16.58;9.35;;;1.60;99.90;;;;;;4818956;29;20495;-84
2022/03/08 07:53:03;;;;;;;17.10;9.48;;;1.80;99.90;;;;;;4821788;29;20045;-84
2022/03/08 07:55:30;;;;;;;17.60;9.30;;;1.90;99.90;;;;;;4806364;29;20575;-84
2022/03/08 07:58:00;;;;;;;17.77;9.43;;;2.70;99.90;;;;;;4818307;29;20067;-83
2022/03/08 08:00:26;;;;;;;20.40;10.60;;;2.10;99.90;;;;;;4839605;29;20065;-83
2022/03/08 08:02:52;;;;;;;18.20;10.00;;;2.90;99.90;;;;;;4814278;29;20108;-83
2022/03/08 08:05:20;;;;;;;15.93;9.35;;;2.30;99.90;;;;;;4838092;29;20058;-83
2022/03/08 08:07:46;;;;;;;16.52;10.23;;;2.40;99.90;;;;;;4824619;29;20107;-84
2022/03/08 08:10:12;;;;;;;17.88;10.57;;;2.70;99.90;;;;;;4823634;29;20047;-84
2022/03/08 08:12:38;;;;;;;15.50;9.65;;;2.60;99.90;;;;;;4813266;29;20115;-84
2022/03/08 08:15:06;;;;;;;14.77;9.40;;;2.70;99.90;;;;;;4824553;29;20083;-83
2022/03/08 08:17:32;;;;;;;14.10;8.48;;;2.90;99.90;;;;;;4809745;29;20073;-83
2022/03/08 08:19:58;;;;;;;14.45;8.80;;;3.00;99.90;;;;;;4795878;29;20047;-84
2022/03/08 08:22:23;;;;;;;18.17;9.05;;;3.10;99.90;;;;;;4820970;29;20554;-83
2022/03/08 08:24:49;;;;;;;15.57;9.70;;;3.20;99.90;;;;;;4822564;29;20081;-86
2022/03/08 08:27:15;;;;;;;14.27;8.57;;;3.30;99.90;;;;;;4822316;29;20175;-85
2022/03/08 08:29:41;;;;;;;14.85;8.75;;;4.20;99.90;;;;;;4800694;29;20051;-85
2022/03/08 08:32:07;;;;;;;15.98;8.88;;;4.20;99.90;;;;;;4823588;29;20050;-86
2022/03/08 08:34:32;;;;;;;13.88;8.43;;;3.70;99.90;;;;;;4819053;29;20085;-86
2022/03/08 08:36:58;;;;;;;13.82;8.85;;;3.80;99.90;;;;;;4839413;29;20146;-87
2022/03/08 08:39:24;;;;;;;12.32;7.78;;;5.00;99.90;;;;;;4808677;29;20506;-86
2022/03/08 08:41:50;;;;;;;14.52;8.40;;;4.10;99.90;;;;;;4817014;29;20133;-85
2022/03/08 08:44:18;;;;;;;14.90;8.85;;;4.20;99.90;;;;;;4821131;29;20061;-84
2022/03/08 08:46:47;;;;;;;13.75;8.43;;;4.30;99.90;;;;;;4835999;29;20596;-85
2022/03/08 08:49:13;;;;;;;13.80;8.75;;;4.40;99.90;;;;;;4820175;29;20081;-85
2022/03/08 08:51:39;;;;;;;15.18;8.57;;;5.20;99.90;;;;;;4820593;29;20050;-84
2022/03/08 08:54:04;;;;;;;14.80;9.23;;;4.70;99.90;;;;;;4805502;29;20128;-84
2022/03/08 08:56:30;;;;;;;13.48;8.27;;;5.20;99.90;;;;;;4819673;29;20097;-85
2022/03/08 08:58:56;;;;;;;15.98;8.45;;;4.90;99.90;;;;;;4820193;29;20058;-84
2022/03/08 09:01:22;;;;;;;13.77;8.48;;;5.10;99.90;;;;;;4820118;29;20050;-84
2022/03/08 09:03:47;;;;;;;12.90;8.57;;;5.20;99.90;;;;;;4820717;29;20051;-84
2022/03/08 09:06:13;;;;;;;13.93;8.05;;;5.30;99.90;;;;;;4820624;29;20053;-84
2022/03/08 09:08:39;;;;;;;14.38;7.85;;;5.60;99.90;;;;;;4796069;29;20599;-85
2022/03/08 09:11:08;;;;;;;12.43;7.75;;;5.50;99.90;;;;;;4822941;29;21792;-84
2022/03/08 09:13:34;;;;;;;11.95;7.40;;;5.60;99.90;;;;;;4835450;29;20059;-85
2022/03/08 09:15:59;;;;;;;12.02;7.88;;;5.80;99.90;;;;;;4806476;29;20046;-88
2022/03/08 09:18:25;;;;;;;11.80;7.68;;;5.90;99.90;;;;;;4820037;29;20455;-88
2022/03/08 09:20:51;;;;;;;12.05;7.47;;;6.00;99.90;;;;;;4835604;29;20055;-88
2022/03/08 09:23:17;;;;;;;13.60;8.07;;;6.10;99.90;;;;;;4790512;29;20085;-88
2022/03/08 09:25:42;;;;;;;13.40;7.55;;;6.10;99.90;;;;;;4805708;29;20058;-86
2022/03/08 09:28:08;;;;;;;11.73;6.65;;;6.70;99.90;;;;;;4804655;29;20778;-89
2022/03/08 09:30:35;;;;;;;11.95;7.57;;;6.40;99.90;;;;;;4789314;29;20062;-85
2022/03/08 09:33:02;;;;;;;13.68;7.85;;;6.40;99.90;;;;;;4804946;29;20103;-89
2022/03/08 09:35:28;;;;;;;15.45;8.65;;;6.50;99.90;;;;;;4820654;29;20054;-88
2022/03/08 09:37:55;;;;;;;13.20;7.20;;;6.60;99.90;;;;;;4805157;29;20051;-85
2022/03/08 09:40:22;;;;;;;11.25;6.65;;;6.70;99.90;;;;;;4835491;29;20055;-84
2022/03/08 09:42:51;;;;;;;9.43;6.68;;;6.90;99.90;;;;;;4804993;29;20466;-86
2022/03/08 09:45:17;;;;;;;12.02;7.10;;;7.00;99.90;;;;;;4804896;29;20129;-85
2022/03/08 09:47:44;;;;;;;12.50;7.32;;;7.00;99.90;;;;;;4804827;29;20086;-86
2022/03/08 09:50:11;;;;;;;10.50;6.88;;;7.10;99.90;;;;;;4804451;29;20086;-86
2022/03/08 09:52:38;;;;;;;10.80;7.28;;;7.20;99.90;;;;;;4804931;29;20215;-85
2022/03/08 09:55:05;;;;;;;11.40;6.93;;;7.40;99.90;;;;;;4834948;29;20453;-87
2022/03/08 09:57:31;;;;;;;13.60;6.88;;;7.50;99.90;;;;;;4834039;29;20094;-86
2022/03/08 09:59:57;;;;;;;10.93;6.55;;;7.60;99.90;;;;;;4816068;29;20511;-86
2022/03/08 10:02:23;;;;;;;10.90;7.07;;;7.70;99.90;;;;;;4840833;29;20046;-84
2022/03/08 10:05:06;;;;;;;12.52;6.47;;;7.80;99.90;;;;;;4841030;29;20093;-86
2022/03/08 10:07:32;;;;;;;10.55;5.88;;;8.00;99.90;;;;;;4833955;29;20050;-85
2022/03/08 10:09:58;;;;;;;9.50;5.90;;;8.10;99.90;;;;;;4822196;29;20495;-84
2022/03/08 10:12:25;;;;;;;10.95;6.18;;;8.20;99.90;;;;;;4789466;29;20055;-84
2022/03/08 10:14:52;;;;;;;10.32;6.50;;;8.20;99.90;;;;;;4807930;29;20058;-87
2022/03/08 10:17:34;;;;;;;9.88;6.28;;;8.50;99.90;;;;;;4807111;29;20412;-84
2022/03/08 10:20:00;;;;;;;8.93;5.80;;;8.80;99.90;;;;;;4822120;29;20054;-88
2022/03/08 10:22:32;;;;;;;8.25;5.95;;;9.00;99.90;;;;;;4822739;29;20053;-86
2022/03/08 10:25:22;;;;;;;7.50;5.80;;;9.30;99.90;;;;;;4822147;29;20066;-82
2022/03/08 10:27:54;;;;;;;8.73;6.00;;;9.50;99.90;;;;;;4821689;29;20049;-84
2022/03/08 10:30:21;;;;;;;8.23;5.80;;;9.60;99.90;;;;;;4806184;29;20046;-85
2022/03/08 10:32:47;;;;;;;9.65;5.82;;;9.70;99.90;;;;;;4837353;29;20058;-85
2022/03/08 10:35:24;;;;;;;8.10;5.90;;;9.80;99.90;;;;;;4822272;29;20553;-86
2022/03/08 10:37:50;;;;;;;6.47;5.10;;;9.90;99.90;;;;;;4803282;29;20055;-85
2022/03/08 10:40:23;;;;;;;8.20;5.05;;;10.10;99.90;;;;;;4822071;29;20649;-85
2022/03/08 10:43:04;;;;;;;9.30;5.18;;;10.20;99.90;;;;;;4822385;29;20506;-85
2022/03/08 10:45:32;;;;;;;7.60;5.03;;;10.30;99.90;;;;;;4821904;29;20050;-86
2022/03/08 10:47:58;;;;;;;6.20;4.70;;;10.30;99.90;;;;;;4823107;29;20096;-85
2022/03/08 10:50:26;;;;;;;6.43;4.88;;;10.40;99.90;;;;;;4791989;29;20082;-87
2022/03/08 10:52:54;;;;;;;8.07;5.18;;;10.10;99.90;;;;;;4807035;29;20051;-89
2022/03/08 10:55:22;;;;;;;6.97;5.05;;;10.10;99.90;;;;;;4822269;29;20110;-84
2022/03/08 10:57:59;;;;;;;7.25;4.60;;;10.30;99.90;;;;;;4806460;29;20488;-85
2022/03/08 11:00:41;;;;;;;7.95;5.13;;;10.40;99.90;;;;;;4838813;29;20086;-87
2022/03/08 11:03:20;;;;;;;6.75;4.72;;;10.50;99.90;;;;;;4840240;29;20070;-90
2022/03/08 11:05:55;;;;;;;7.55;4.95;;;10.60;99.90;;;;;;4840172;29;20082;-84
2022/03/08 11:08:27;;;;;;;7.88;5.28;;;10.60;99.90;;;;;;4836455;29;20049;-86
2022/03/08 11:10:53;;;;;;;7.88;4.93;;;10.50;99.90;;;;;;4807490;29;20054;-86
2022/03/08 11:13:19;;;;;;;7.07;4.40;;;10.50;99.90;;;;;;4806454;29;20081;-86
2022/03/08 11:15:45;;;;;;;5.22;4.30;;;10.60;99.90;;;;;;4806652;29;20058;-85
2022/03/08 11:18:13;;;;;;;9.57;4.65;;;10.70;99.90;;;;;;4821738;29;20099;-85
2022/03/08 11:20:41;;;;;;;6.93;5.05;;;10.80;99.90;;;;;;4807055;29;20416;-87
2022/03/08 11:23:09;;;;;;;7.70;4.45;;;10.80;99.90;;;;;;4821246;29;20055;-85
2022/03/08 11:25:41;;;;;;;6.88;4.80;;;10.90;99.90;;;;;;4806849;29;20066;-87
2022/03/08 11:28:07;;;;;;;7.63;4.72;;;11.00;99.90;;;;;;4822503;29;20054;-88
2022/03/08 11:30:56;;;;;;;7.55;4.30;;;10.90;99.90;;;;;;4821566;29;20059;-90
2022/03/08 11:33:42;;;;;;;8.18;4.80;;;10.90;99.90;;;;;;4821164;29;20129;-87
2022/03/08 11:36:30;;;;;;;7.47;4.47;;;11.00;99.90;;;;;;4806861;29;20137;-89
2022/03/08 11:39:14;;;;;;;6.40;4.60;;;11.10;99.90;;;;;;4822924;29;20464;-86
2022/03/08 11:41:41;;;;;;;6.57;4.45;;;11.10;99.90;;;;;;4810256;29;20471;-89
2022/03/08 11:44:07;;;;;;;7.13;4.25;;;11.10;99.90;;;;;;4825181;29;20062;-85
2022/03/08 11:46:33;;;;;;;8.98;5.07;;;11.20;99.90;;;;;;4810247;29;20149;-89
2022/03/08 11:49:02;;;;;;;6.75;4.60;;;11.10;99.90;;;;;;4825113;29;20575;-86
2022/03/08 11:51:31;;;;;;;6.75;4.30;;;11.00;99.90;;;;;;4809607;29;20054;-86
2022/03/08 11:54:27;;;;;;;6.15;4.38;;;11.00;99.90;;;;;;4810508;29;20100;-87
2022/03/08 11:56:54;;;;;;;6.25;4.30;;;10.90;99.90;;;;;;4811727;29;20111;-88
2022/03/08 11:59:20;;;;;;;7.05;3.97;;;10.80;99.90;;;;;;4818477;29;20137;-86
2022/03/08 12:01:47;;;;;;;5.78;4.68;;;10.80;99.90;;;;;;4842836;29;20092;-86
2022/03/08 12:04:18;;;;;;;5.55;4.20;;;10.80;99.90;;;;;;4843251;29;20054;-86
2022/03/08 12:06:58;;;;;;;7.45;4.40;;;10.70;99.90;;;;;;4842282;29;20393;-87
2022/03/08 12:09:25;;;;;;;7.43;4.80;;;10.70;99.90;;;;;;4809420;29;20050;-88
2022/03/08 12:12:01;;;;;;;7.45;4.57;;;11.10;99.90;;;;;;4824235;29;20050;-84
2022/03/08 12:14:27;;;;;;;6.97;4.85;;;11.10;99.90;;;;;;4809170;29;20082;-88
2022/03/08 12:17:15;;;;;;;6.63;4.55;;;11.00;99.90;;;;;;4824600;29;20299;-90
2022/03/08 12:19:47;;;;;;;6.30;4.63;;;10.90;99.90;;;;;;4809751;29;20042;-85
2022/03/08 12:22:15;;;;;;;6.95;4.50;;;10.80;99.90;;;;;;4824669;29;20463;-91
2022/03/08 12:25:02;;;;;;;6.10;3.92;;;10.70;99.90;;;;;;4824817;29;20054;-84
2022/03/08 12:27:49;;;;;;;5.97;4.10;;;10.80;99.90;;;;;;4823938;29;20054;-85
2022/03/08 12:30:15;;;;;;;5.55;3.97;;;10.90;99.90;;;;;;4823856;29;20092;-86
2022/03/08 12:32:43;;;;;;;7.18;4.13;;;11.00;99.90;;;;;;4823859;29;20078;-89
2022/03/08 12:35:24;;;;;;;6.75;4.22;;;11.60;99.90;;;;;;4824427;29;20131;-85
2022/03/08 12:37:59;;;;;;;6.30;4.30;;;12.70;99.90;;;;;;4823886;29;20508;-84
2022/03/08 12:40:31;;;;;;;6.60;4.57;;;13.20;99.90;;;;;;4823814;29;20128;-83
2022/03/08 12:43:07;;;;;;;7.45;4.28;;;13.30;99.90;;;;;;4823827;29;20198;-85
2022/03/08 12:45:39;;;;;;;7.25;4.40;;;13.50;99.90;;;;;;4809295;29;20059;-85